Time;durP1;ratioP1;P1;durP2;ratioP2;P2;SDS_P1;SDS_P2;PMS_P1;PMS_P2;Temp;Humidity;BMP_temperature;BMP_pressure;BME280_temperature;BME280_humidity;BME280_pressure;Samples;Min_cycle;Max_cycle;Signal;HPM_P1;HPM_P2
2021/04/02 00:01:39;;;;;;;7.30;1.60;;;18.70;53.10;;;;;;5022359;28;20037;-72
2021/04/02 00:04:05;;;;;;;5.80;1.52;;;18.70;53.10;;;;;;5032148;28;20022;-72
2021/04/02 00:06:30;;;;;;;5.72;1.55;;;18.60;53.20;;;;;;5029314;28;20037;-72
2021/04/02 00:08:56;;;;;;;3.42;1.30;;;18.60;53.30;;;;;;5032090;28;20080;-72
2021/04/02 00:11:22;;;;;;;5.32;1.52;;;18.60;53.20;;;;;;5023752;28;20109;-72
2021/04/02 00:13:47;;;;;;;4.80;1.30;;;18.60;53.40;;;;;;5028318;28;20032;-73
2021/04/02 00:16:16;;;;;;;4.18;1.20;;;18.60;53.50;;;;;;5011128;28;20113;-74
2021/04/02 00:18:42;;;;;;;3.38;1.20;;;18.50;53.50;;;;;;5019264;28;20399;-72
2021/04/02 00:21:10;;;;;;;3.75;1.33;;;18.50;53.50;;;;;;5014861;28;20822;-72
2021/04/02 00:23:36;;;;;;;4.07;1.60;;;18.50;53.60;;;;;;5011115;28;20022;-74
2021/04/02 00:26:15;;;;;;;5.03;1.58;;;18.50;53.60;;;;;;5012355;28;20490;-72
2021/04/02 00:28:41;;;;;;;5.63;1.55;;;18.50;53.70;;;;;;5015343;28;20062;-72
2021/04/02 00:31:07;;;;;;;5.18;1.60;;;18.40;53.70;;;;;;5030423;28;20097;-73
2021/04/02 00:33:33;;;;;;;5.43;1.23;;;18.50;53.60;;;;;;5028996;28;20033;-72
2021/04/02 00:36:00;;;;;;;3.58;1.20;;;18.40;53.60;;;;;;5017445;28;20022;-72
2021/04/02 00:38:26;;;;;;;3.97;1.40;;;18.40;53.70;;;;;;5026528;28;20109;-74
2021/04/02 00:41:05;;;;;;;4.20;1.30;;;18.40;53.80;;;;;;5030218;28;20399;-71
2021/04/02 00:43:34;;;;;;;4.32;1.67;;;18.40;53.80;;;;;;5028322;28;20033;-72
2021/04/02 00:45:59;;;;;;;3.05;1.40;;;18.40;53.90;;;;;;5029901;28;20075;-72
2021/04/02 00:48:25;;;;;;;5.80;1.70;;;18.40;53.90;;;;;;5031338;28;20025;-73
2021/04/02 00:51:00;;;;;;;4.28;1.50;;;18.40;54.00;;;;;;5010454;28;20092;-73
2021/04/02 00:53:28;;;;;;;4.10;1.30;;;18.30;53.90;;;;;;5024196;28;20491;-72
2021/04/02 00:55:53;;;;;;;5.00;1.50;;;18.30;53.90;;;;;;5029811;28;20037;-73
2021/04/02 00:58:22;;;;;;;3.13;1.33;;;18.30;54.00;;;;;;5019615;28;20057;-73
2021/04/02 01:00:48;;;;;;;4.78;1.60;;;18.30;54.00;;;;;;5028771;28;20061;-72
2021/04/02 01:03:14;;;;;;;4.20;1.50;;;18.30;54.10;;;;;;5029304;28;20071;-73
2021/04/02 01:05:45;;;;;;;6.00;1.60;;;18.20;54.20;;;;;;5031015;28;20056;-73
2021/04/02 01:08:20;;;;;;;5.97;1.70;;;18.20;54.20;;;;;;5028680;28;20091;-71
2021/04/02 01:10:49;;;;;;;4.90;1.55;;;18.20;54.30;;;;;;5012296;28;20041;-71
2021/04/02 01:13:18;;;;;;;5.70;1.60;;;18.10;54.20;;;;;;5023473;28;20407;-72
2021/04/02 01:16:12;;;;;;;4.70;1.60;;;18.10;54.30;;;;;;5031362;28;20029;-73
2021/04/02 01:19:04;;;;;;;4.80;1.63;;;18.10;54.40;;;;;;5030867;28;20029;-72
2021/04/02 01:21:36;;;;;;;6.00;1.98;;;18.10;54.40;;;;;;5019344;28;20076;-72
2021/04/02 01:24:22;;;;;;;6.75;2.00;;;18.10;54.40;;;;;;5030638;28;20040;-72
2021/04/02 01:27:03;;;;;;;4.00;1.55;;;18.10;54.60;;;;;;5029722;28;20029;-72
2021/04/02 01:29:45;;;;;;;6.80;2.08;;;18.10;54.40;;;;;;5030341;28;20029;-72
2021/04/02 01:32:17;;;;;;;5.00;1.80;;;18.00;54.50;;;;;;5014473;28;20046;-73
2021/04/02 01:34:47;;;;;;;4.72;1.58;;;18.00;54.50;;;;;;5030635;28;20037;-72
2021/04/02 01:37:37;;;;;;;5.40;1.80;;;18.00;54.60;;;;;;5028268;28;20067;-72
2021/04/02 01:40:07;;;;;;;4.07;1.75;;;18.00;54.70;;;;;;5009198;28;20046;-74
2021/04/02 01:42:34;;;;;;;4.22;1.73;;;18.00;54.80;;;;;;5012228;28;20050;-74
2021/04/02 01:45:02;;;;;;;5.20;1.75;;;18.00;54.70;;;;;;5020101;28;20018;-72
2021/04/02 01:47:28;;;;;;;4.80;1.90;;;18.00;54.60;;;;;;5021148;28;20130;-74
2021/04/02 01:49:55;;;;;;;4.85;2.20;;;18.00;54.70;;;;;;5010149;28;20018;-73
2021/04/02 01:52:22;;;;;;;6.47;2.15;;;17.90;54.60;;;;;;5011150;28;20050;-72
2021/04/02 01:57:21;;;;;;;4.13;1.85;;;17.90;54.60;;;;;;5025495;23;20112;-67
2021/04/02 01:59:47;;;;;;;4.68;1.55;;;17.90;54.60;;;;;;5002863;28;20022;-67
2021/04/02 02:02:15;;;;;;;4.40;1.60;;;17.90;54.70;;;;;;5010380;28;20041;-68
2021/04/02 02:04:43;;;;;;;4.57;1.77;;;17.90;54.60;;;;;;4990978;28;20034;-68
2021/04/02 02:07:09;;;;;;;5.60;1.95;;;17.90;54.70;;;;;;4990230;28;20464;-69
2021/04/02 02:09:39;;;;;;;4.25;1.80;;;17.90;54.80;;;;;;4993082;28;20049;-66
2021/04/02 02:12:08;;;;;;;4.18;1.80;;;17.90;54.70;;;;;;4991424;28;20033;-68
2021/04/02 02:14:35;;;;;;;5.03;1.95;;;17.80;54.80;;;;;;4992330;28;20030;-68
2021/04/02 02:17:05;;;;;;;4.43;1.67;;;17.80;54.70;;;;;;4991049;28;20054;-68
2021/04/02 02:19:34;;;;;;;5.85;1.88;;;17.90;54.80;;;;;;4995167;28;20076;-68
2021/04/02 02:22:04;;;;;;;7.18;2.20;;;17.80;54.60;;;;;;5012299;28;20022;-68
2021/04/02 02:24:30;;;;;;;7.18;2.15;;;17.80;54.70;;;;;;4995660;28;20027;-68
2021/04/02 02:26:55;;;;;;;6.00;2.05;;;17.80;54.70;;;;;;5003178;28;20399;-69
2021/04/02 02:29:21;;;;;;;6.13;2.10;;;17.80;54.70;;;;;;5009034;28;20022;-69
2021/04/02 02:31:47;;;;;;;5.57;2.17;;;17.80;54.80;;;;;;5013900;28;20029;-69
2021/04/02 02:34:12;;;;;;;6.00;2.40;;;17.80;54.90;;;;;;5013786;28;20057;-69
2021/04/02 02:36:38;;;;;;;6.57;2.40;;;17.80;55.40;;;;;;5013001;28;20053;-69
2021/04/02 02:39:09;;;;;;;5.63;2.45;;;17.80;54.90;;;;;;5010968;28;20034;-67
2021/04/02 02:41:35;;;;;;;5.97;2.38;;;17.80;55.50;;;;;;4994493;28;20031;-69
2021/04/02 02:44:01;;;;;;;5.88;2.20;;;17.80;55.00;;;;;;4994162;28;20523;-68
2021/04/02 02:46:28;;;;;;;6.80;2.50;;;17.80;55.50;;;;;;4992965;28;20022;-68
2021/04/02 02:49:00;;;;;;;6.47;2.38;;;17.80;54.90;;;;;;4992786;28;20559;-68
2021/04/02 02:51:31;;;;;;;5.80;2.17;;;17.80;55.00;;;;;;4992475;28;20034;-69
2021/04/02 02:54:02;;;;;;;5.15;2.63;;;17.70;55.00;;;;;;4992803;28;20030;-67
2021/04/02 02:56:31;;;;;;;6.57;2.60;;;17.70;55.00;;;;;;4993317;28;20089;-69
2021/04/02 02:58:58;;;;;;;6.15;2.45;;;17.80;54.90;;;;;;5002830;28;20113;-66
2021/04/02 03:01:26;;;;;;;5.30;2.70;;;17.70;54.90;;;;;;4992466;28;20050;-65
2021/04/02 03:03:53;;;;;;;5.13;2.40;;;17.70;54.90;;;;;;5010077;28;20021;-67
2021/04/02 03:06:22;;;;;;;6.03;2.70;;;17.70;55.00;;;;;;5012035;28;20018;-67
2021/04/02 03:08:51;;;;;;;6.00;2.63;;;17.70;55.00;;;;;;5012480;28;20455;-70
2021/04/02 03:11:19;;;;;;;5.68;2.22;;;17.70;55.00;;;;;;5012832;28;20109;-70
2021/04/02 03:13:46;;;;;;;4.65;2.30;;;17.60;55.00;;;;;;5011769;28;20388;-69
2021/04/02 03:16:12;;;;;;;7.85;2.75;;;17.70;55.00;;;;;;5009866;28;20033;-67
2021/04/02 03:18:38;;;;;;;5.43;3.05;;;17.70;55.00;;;;;;4992054;28;20026;-69
2021/04/02 03:21:08;;;;;;;5.32;2.63;;;17.70;55.00;;;;;;5003745;28;20098;-70
2021/04/02 03:23:35;;;;;;;10.45;2.90;;;17.70;55.00;;;;;;4992450;28;20500;-68
2021/04/02 03:26:01;;;;;;;5.72;3.00;;;17.60;54.90;;;;;;5008665;28;20037;-69
2021/04/02 03:28:27;;;;;;;6.25;2.50;;;17.60;54.90;;;;;;4994088;28;20026;-68
2021/04/02 03:30:52;;;;;;;5.82;2.75;;;17.60;54.90;;;;;;4997905;28;20033;-69
2021/04/02 03:33:22;;;;;;;5.05;2.45;;;17.60;54.90;;;;;;5011341;28;20050;-66
2021/04/02 03:35:49;;;;;;;5.75;2.50;;;17.60;54.90;;;;;;5012913;28;20029;-67
2021/04/02 03:38:17;;;;;;;5.93;2.80;;;17.60;54.80;;;;;;4994514;28;20030;-67
2021/04/02 03:40:45;;;;;;;5.93;2.80;;;17.60;55.00;;;;;;4992171;28;20026;-69
2021/04/02 03:43:11;;;;;;;6.43;2.80;;;17.60;54.90;;;;;;4992187;28;20125;-68
2021/04/02 03:45:39;;;;;;;7.32;3.15;;;17.50;54.90;;;;;;4991944;28;20509;-68
2021/04/02 03:48:06;;;;;;;6.72;3.20;;;17.60;54.90;;;;;;5006938;28;20034;-69
2021/04/02 03:50:36;;;;;;;5.55;2.47;;;17.60;54.70;;;;;;5012432;28;20045;-70
2021/04/02 03:53:14;;;;;;;5.30;3.00;;;17.60;54.80;;;;;;5012709;28;20129;-69
2021/04/02 03:55:44;;;;;;;7.07;3.03;;;17.60;54.80;;;;;;5007392;28;20029;-69
2021/04/02 03:58:13;;;;;;;5.95;3.03;;;17.60;54.70;;;;;;4993278;28;20035;-69
2021/04/02 04:01:02;;;;;;;6.78;3.17;;;17.60;54.80;;;;;;5002558;28;20124;-66
2021/04/02 04:03:28;;;;;;;5.45;2.63;;;17.60;54.70;;;;;;4987395;28;20081;-67
2021/04/02 04:05:57;;;;;;;6.47;3.28;;;17.50;54.70;;;;;;5009311;28;20431;-67
2021/04/02 04:08:24;;;;;;;5.22;2.78;;;17.50;54.60;;;;;;5010697;28;20065;-69
2021/04/02 04:10:51;;;;;;;6.65;2.80;;;17.50;54.70;;;;;;5006321;28;20084;-69
2021/04/02 04:13:18;;;;;;;6.80;3.40;;;17.50;54.60;;;;;;4991521;28;20403;-69
2021/04/02 04:15:46;;;;;;;5.72;2.97;;;17.50;54.60;;;;;;4992759;28;20019;-69
2021/04/02 04:18:13;;;;;;;8.45;3.40;;;17.50;54.60;;;;;;4992584;28;20030;-70
2021/04/02 04:20:41;;;;;;;6.97;3.50;;;17.50;54.50;;;;;;4996790;28;20498;-69
2021/04/02 04:23:07;;;;;;;7.53;3.17;;;17.50;54.50;;;;;;5010757;28;20061;-70
2021/04/02 04:25:34;;;;;;;6.18;3.03;;;17.50;54.50;;;;;;5010929;28;20022;-70
2021/04/02 04:28:02;;;;;;;8.20;3.47;;;17.50;54.50;;;;;;5010738;28;20037;-71
2021/04/02 04:30:29;;;;;;;7.20;3.35;;;17.50;54.50;;;;;;5010849;28;20026;-70
2021/04/02 04:32:57;;;;;;;8.13;3.70;;;17.50;54.50;;;;;;4992611;28;20030;-69
2021/04/02 04:35:23;;;;;;;6.32;2.92;;;17.50;54.40;;;;;;4993585;28;20034;-69
2021/04/02 04:37:49;;;;;;;6.15;3.35;;;17.50;54.50;;;;;;4991156;28;20496;-69
2021/04/02 04:40:18;;;;;;;7.00;3.60;;;17.50;54.50;;;;;;4990856;28;20085;-69
2021/04/02 04:42:46;;;;;;;6.60;3.30;;;17.50;54.50;;;;;;5010603;28;20026;-69
2021/04/02 04:45:19;;;;;;;8.13;3.47;;;17.50;54.50;;;;;;5006661;28;20025;-69
2021/04/02 04:47:45;;;;;;;8.02;3.55;;;17.50;54.60;;;;;;5003983;28;20050;-70
2021/04/02 04:50:12;;;;;;;5.88;3.35;;;17.50;54.40;;;;;;4990677;28;20508;-70
2021/04/02 04:52:43;;;;;;;7.65;3.33;;;17.50;54.40;;;;;;5008109;28;20033;-69
2021/04/02 04:55:10;;;;;;;7.93;3.80;;;17.50;54.40;;;;;;5009355;28;20113;-69
2021/04/02 04:57:38;;;;;;;6.45;3.50;;;17.50;54.50;;;;;;5008921;28;20029;-70
2021/04/02 05:00:06;;;;;;;7.28;3.63;;;17.50;54.40;;;;;;5008560;28;20030;-69
2021/04/02 05:02:33;;;;;;;6.90;3.60;;;17.40;54.30;;;;;;4993722;28;20050;-69
2021/04/02 05:05:01;;;;;;;8.85;4.32;;;17.50;54.40;;;;;;4991642;28;20038;-69
2021/04/02 05:07:29;;;;;;;5.72;3.63;;;17.50;54.40;;;;;;4991921;28;20023;-69
2021/04/02 05:09:57;;;;;;;8.77;3.70;;;17.50;54.40;;;;;;4999280;28;20024;-69
2021/04/02 05:12:24;;;;;;;7.35;3.92;;;17.50;54.50;;;;;;5004702;28;20040;-69
2021/04/02 05:14:51;;;;;;;7.00;3.80;;;17.50;54.50;;;;;;4993830;28;20034;-70
2021/04/02 05:17:18;;;;;;;7.35;4.10;;;17.40;54.40;;;;;;4990675;28;20121;-68
2021/04/02 05:19:45;;;;;;;6.97;4.18;;;17.40;54.40;;;;;;4995382;28;20040;-69
2021/04/02 05:22:10;;;;;;;8.10;3.92;;;17.40;54.30;;;;;;5011413;28;20034;-69
2021/04/02 05:24:37;;;;;;;8.80;4.20;;;17.40;54.40;;;;;;5009907;28;20085;-70
2021/04/02 05:27:05;;;;;;;6.57;4.07;;;17.40;54.40;;;;;;4998530;28;20026;-69
2021/04/02 05:29:31;;;;;;;8.80;4.18;;;17.50;54.40;;;;;;4999997;28;20044;-68
2021/04/02 05:31:57;;;;;;;7.00;4.00;;;17.40;54.40;;;;;;4991798;28;20084;-70
2021/04/02 05:34:23;;;;;;;7.80;4.07;;;17.40;54.40;;;;;;4992827;28;20034;-70
2021/04/02 05:36:48;;;;;;;7.82;4.32;;;17.40;54.40;;;;;;4990499;28;20042;-70
2021/04/02 05:39:14;;;;;;;7.72;4.43;;;17.40;54.40;;;;;;4992187;28;20406;-69
2021/04/02 05:41:56;;;;;;;7.45;4.55;;;17.40;54.40;;;;;;5008399;28;20586;-70
2021/04/02 05:44:31;;;;;;;7.80;4.13;;;17.40;54.50;;;;;;5007839;28;20014;-69
2021/04/02 05:47:03;;;;;;;7.88;4.38;;;17.40;54.50;;;;;;4991665;28;20069;-69
2021/04/02 05:49:30;;;;;;;7.13;4.50;;;17.40;54.50;;;;;;4991512;28;20480;-69
2021/04/02 05:51:57;;;;;;;7.78;4.80;;;17.40;54.40;;;;;;4991751;28;20062;-69
2021/04/02 05:54:38;;;;;;;8.07;4.70;;;17.40;54.40;;;;;;4997869;28;20138;-69
2021/04/02 05:57:04;;;;;;;7.78;4.85;;;17.40;54.40;;;;;;5013616;28;20088;-70
2021/04/02 05:59:30;;;;;;;7.60;4.55;;;17.40;54.50;;;;;;5003918;28;20520;-69
2021/04/02 06:01:56;;;;;;;7.57;4.30;;;17.30;54.40;;;;;;5007996;28;20063;-68
2021/04/02 06:04:22;;;;;;;8.75;4.65;;;17.40;54.60;;;;;;5010618;28;20026;-69
2021/04/02 06:06:48;;;;;;;8.20;4.75;;;17.30;54.60;;;;;;5013570;28;20392;-70
2021/04/02 06:09:14;;;;;;;7.70;4.88;;;17.40;54.70;;;;;;5011402;28;20625;-69
2021/04/02 06:11:40;;;;;;;9.93;5.00;;;17.40;54.70;;;;;;5002434;28;20405;-69
2021/04/02 06:14:07;;;;;;;8.32;5.07;;;17.30;54.60;;;;;;5010704;28;20026;-69
2021/04/02 06:16:33;;;;;;;8.60;4.57;;;17.40;54.70;;;;;;5005543;28;20026;-68
2021/04/02 06:19:11;;;;;;;8.48;4.68;;;17.30;55.40;;;;;;4994463;28;20030;-69
2021/04/02 06:21:49;;;;;;;9.95;4.95;;;17.40;55.00;;;;;;4998653;28;20019;-69
2021/04/02 06:24:17;;;;;;;9.32;4.65;;;17.40;54.90;;;;;;5009272;28;20026;-70
2021/04/02 06:27:13;;;;;;;9.93;4.70;;;17.40;54.90;;;;;;5004483;28;20040;-69
2021/04/02 06:29:40;;;;;;;9.02;4.93;;;17.40;55.00;;;;;;5007240;28;20034;-70
2021/04/02 06:32:27;;;;;;;8.43;4.47;;;17.40;54.80;;;;;;5000774;28;20100;-68
2021/04/02 06:34:52;;;;;;;10.07;5.00;;;17.40;54.80;;;;;;4998665;28;20037;-69
2021/04/02 06:37:18;;;;;;;8.77;4.50;;;17.40;54.70;;;;;;5007235;28;20031;-68
2021/04/02 06:39:51;;;;;;;7.65;4.13;;;17.40;54.70;;;;;;4999474;28;20125;-69
2021/04/02 06:42:33;;;;;;;8.38;4.65;;;17.40;54.70;;;;;;5002558;28;20054;-70
2021/04/02 06:45:08;;;;;;;9.07;4.57;;;17.40;54.70;;;;;;5005162;28;20495;-69
2021/04/02 06:47:39;;;;;;;11.15;4.47;;;17.40;55.10;;;;;;4994282;28;20534;-70
2021/04/02 06:50:23;;;;;;;10.53;4.50;;;17.60;56.10;;;;;;5003197;28;20112;-71
2021/04/02 06:52:56;;;;;;;12.50;4.53;;;17.70;55.30;;;;;;5030696;28;20092;-71
2021/04/02 06:55:24;;;;;;;11.23;4.75;;;17.80;55.50;;;;;;5031719;28;20057;-69
2021/04/02 06:57:52;;;;;;;10.52;4.20;;;17.70;55.40;;;;;;5031854;28;20030;-69
2021/04/02 07:00:20;;;;;;;9.07;4.60;;;17.80;55.50;;;;;;5032030;28;20071;-71
2021/04/02 07:02:47;;;;;;;12.45;5.00;;;17.70;55.30;;;;;;5021497;28;20022;-66
2021/04/02 07:05:16;;;;;;;10.90;4.60;;;17.70;55.80;;;;;;5027575;28;20098;-70
2021/04/02 07:07:45;;;;;;;10.75;4.50;;;17.70;56.60;;;;;;4997172;28;20105;-68
2021/04/02 07:10:12;;;;;;;13.93;4.80;;;17.70;56.70;;;;;;5005985;28;20018;-66
2021/04/02 07:12:38;;;;;;;11.60;3.95;;;17.60;56.70;;;;;;5007933;28;20033;-68
2021/04/02 07:15:05;;;;;;;12.68;4.63;;;17.60;57.50;;;;;;5002814;28;20034;-68
2021/04/02 07:17:31;;;;;;;13.52;4.68;;;17.60;58.10;;;;;;5012124;28;20037;-68
2021/04/02 07:19:57;;;;;;;13.27;4.90;;;17.70;58.90;;;;;;5012889;28;20026;-67
2021/04/02 07:22:24;;;;;;;15.90;5.00;;;17.70;59.40;;;;;;5013102;28;20034;-67
2021/04/02 07:24:50;;;;;;;12.27;4.63;;;17.70;60.70;;;;;;5003450;28;20035;-68
2021/04/02 07:27:16;;;;;;;16.35;4.88;;;17.70;59.40;;;;;;5008375;28;20449;-69
2021/04/02 07:29:42;;;;;;;88.10;58.30;;;17.60;59.70;;;;;;5011361;28;20084;-69
2021/04/02 07:32:09;;;;;;;65.45;42.78;;;17.60;60.00;;;;;;5011740;28;20030;-68
2021/04/02 07:34:35;;;;;;;37.08;21.52;;;17.70;59.50;;;;;;5013329;28;20041;-68
2021/04/02 07:37:00;;;;;;;47.20;31.20;;;17.70;58.00;;;;;;5011255;28;20034;-72
2021/04/02 07:39:30;;;;;;;53.80;35.60;;;17.90;61.00;;;;;;5012772;28;20550;-73
2021/04/02 07:41:56;;;;;;;55.85;39.35;;;18.20;60.20;;;;;;5011724;28;20136;-71
2021/04/02 07:44:22;;;;;;;37.15;28.30;;;18.40;59.30;;;;;;5013093;28;20472;-73
2021/04/02 07:47:08;;;;;;;28.80;18.60;;;18.50;58.00;;;;;;5011899;28;20022;-73
2021/04/02 07:49:51;;;;;;;24.80;16.42;;;18.60;57.20;;;;;;5009379;28;20025;-72
2021/04/02 07:52:17;;;;;;;22.70;14.98;;;18.70;56.60;;;;;;5011637;28;20084;-72
2021/04/02 07:54:46;;;;;;;22.25;14.57;;;18.60;56.60;;;;;;5012568;28;20539;-73
2021/04/02 07:57:11;;;;;;;30.58;14.45;;;18.60;56.40;;;;;;5011460;28;20037;-72
2021/04/02 07:59:44;;;;;;;20.52;13.52;;;18.50;56.40;;;;;;5071710;22;20032;-70
2021/04/02 08:02:15;;;;;;;22.13;13.13;;;18.60;56.60;;;;;;4990412;28;20077;-71
2021/04/02 08:04:43;;;;;;;25.45;13.02;;;18.60;56.20;;;;;;4993677;28;20049;-66
2021/04/02 08:07:16;;;;;;;20.10;11.98;;;18.60;56.40;;;;;;4993056;28;20085;-68
2021/04/02 08:09:49;;;;;;;23.90;11.65;;;18.50;55.90;;;;;;4993286;28;20027;-62
2021/04/02 08:12:21;;;;;;;17.80;10.18;;;18.40;56.30;;;;;;5006347;28;20095;-67
2021/04/02 08:14:47;;;;;;;;;;;18.40;57.70;;;;;;5004864;28;20028;-65
2021/04/02 08:17:17;;;;;;;24.50;10.02;;;18.30;57.40;;;;;;4990125;28;19924;-68
2021/04/02 08:19:43;;;;;;;21.20;9.32;;;18.40;56.20;;;;;;4998022;28;20088;-67
2021/04/02 08:22:15;;;;;;;19.02;8.75;;;18.30;56.60;;;;;;5003695;28;20443;-68
2021/04/02 08:24:45;;;;;;;21.73;7.93;;;18.20;56.60;;;;;;4992128;28;20022;-67
2021/04/02 08:27:13;;;;;;;20.98;7.70;;;18.20;56.50;;;;;;4984871;28;20018;-68
2021/04/02 08:29:41;;;;;;;18.65;8.02;;;18.20;56.20;;;;;;4990040;28;20436;-68
2021/04/02 08:32:13;;;;;;;20.85;8.13;;;18.30;56.00;;;;;;5006084;28;20476;-67
2021/04/02 08:34:39;;;;;;;59.15;10.77;;;18.30;56.10;;;;;;5025270;28;20029;-68
2021/04/02 08:37:07;;;;;;;134.60;17.30;;;18.30;56.00;;;;;;5006284;28;20033;-68
2021/04/02 08:39:35;;;;;;;147.98;19.08;;;18.20;56.30;;;;;;4997132;28;20064;-69
2021/04/02 08:42:04;;;;;;;126.68;16.75;;;18.20;56.50;;;;;;4999332;28;20062;-68
2021/04/02 08:44:33;;;;;;;109.80;15.15;;;18.20;56.60;;;;;;5006514;28;20017;-69
2021/04/02 08:47:03;;;;;;;62.40;10.90;;;18.20;56.70;;;;;;5007171;28;20052;-68
2021/04/02 08:49:42;;;;;;;53.38;10.55;;;18.20;56.70;;;;;;5011544;28;20026;-67
2021/04/02 08:54:27;;;;;;;28.52;8.32;;;18.10;56.40;;;;;;5108888;27;20367;-69
2021/04/02 08:56:52;;;;;;;28.23;7.00;;;18.30;55.50;;;;;;5108918;28;20035;-68
2021/04/02 08:59:18;;;;;;;33.03;7.20;;;18.30;55.80;;;;;;5108714;28;20393;-68
2021/04/02 09:01:48;;;;;;;35.67;15.48;;;18.30;55.50;;;;;;5109025;28;20099;-69
2021/04/02 09:04:17;;;;;;;34.65;11.73;;;18.30;55.40;;;;;;5109013;28;20031;-69
2021/04/02 09:06:44;;;;;;;29.45;7.72;;;18.30;55.40;;;;;;5127280;28;20110;-67
2021/04/02 09:09:19;;;;;;;24.08;6.93;;;18.40;55.20;;;;;;5127436;27;20114;-69
2021/04/02 09:11:46;;;;;;;24.38;6.25;;;18.40;55.10;;;;;;5127777;27;20019;-69
2021/04/02 09:14:13;;;;;;;20.25;6.63;;;18.50;54.90;;;;;;5129374;27;20019;-69
2021/04/02 09:16:41;;;;;;;22.65;5.97;;;18.50;54.70;;;;;;5115156;28;20056;-71
2021/04/02 09:19:07;;;;;;;23.77;8.95;;;18.60;54.60;;;;;;5114714;27;20665;-69
2021/04/02 09:21:33;;;;;;;25.27;10.88;;;18.60;54.50;;;;;;5103153;28;20533;-68
2021/04/02 09:24:00;;;;;;;17.25;7.40;;;18.70;54.80;;;;;;5107218;28;20035;-72
2021/04/02 09:26:25;;;;;;;22.50;6.32;;;18.80;55.60;;;;;;5095422;28;20051;-69
2021/04/02 09:28:55;;;;;;;19.38;6.07;;;18.90;55.60;;;;;;5104250;28;20060;-69
2021/04/02 09:31:26;;;;;;;13.98;5.07;;;18.90;55.00;;;;;;5102753;28;20553;-67
2021/04/02 09:33:58;;;;;;;14.53;4.70;;;19.00;55.20;;;;;;5087305;28;20044;-67
2021/04/02 09:36:28;;;;;;;13.65;4.95;;;19.10;54.90;;;;;;5094497;28;20422;-71
2021/04/02 09:39:14;;;;;;;11.05;4.70;;;19.10;55.00;;;;;;5096701;28;20417;-70
2021/04/02 09:41:54;;;;;;;13.85;4.90;;;19.20;54.70;;;;;;5127486;28;20035;-71
2021/04/02 09:44:23;;;;;;;18.80;5.25;;;19.30;55.20;;;;;;5128758;27;20019;-69
2021/04/02 09:46:50;;;;;;;17.65;5.13;;;19.30;56.30;;;;;;5120471;27;20024;-69
2021/04/02 09:49:19;;;;;;;11.23;4.70;;;19.30;54.90;;;;;;5106716;28;20034;-72
2021/04/02 09:51:55;;;;;;;20.98;4.57;;;19.30;55.30;;;;;;5117324;28;20024;-67
2021/04/02 09:54:24;;;;;;;28.42;10.95;;;19.40;52.50;;;;;;5092264;28;20062;-68
2021/04/02 09:56:51;;;;;;;28.52;10.15;;;19.30;53.00;;;;;;5085721;28;20070;-70
2021/04/02 09:59:16;;;;;;;21.00;7.80;;;19.30;53.70;;;;;;5086828;28;20025;-71
2021/04/02 10:01:43;;;;;;;18.35;7.43;;;19.30;54.20;;;;;;5086334;28;20478;-69
2021/04/02 10:04:12;;;;;;;16.33;6.78;;;19.30;54.60;;;;;;5081780;28;20494;-69
2021/04/02 10:06:38;;;;;;;16.55;6.32;;;19.30;54.90;;;;;;5074505;28;20032;-69
2021/04/02 10:09:06;;;;;;;17.17;6.07;;;19.40;55.20;;;;;;5096689;28;20059;-69
2021/04/02 10:11:35;;;;;;;14.68;5.90;;;19.40;55.40;;;;;;5102753;28;20028;-70
2021/04/02 10:14:02;;;;;;;13.85;5.97;;;19.40;55.40;;;;;;5102084;28;20055;-70
2021/04/02 10:16:28;;;;;;;14.43;6.28;;;19.40;55.50;;;;;;5097022;28;20043;-70
2021/04/02 10:18:54;;;;;;;13.68;5.18;;;19.40;55.40;;;;;;5097930;28;20058;-71
2021/04/02 10:21:21;;;;;;;14.73;5.72;;;19.50;55.30;;;;;;5113182;28;20047;-71
2021/04/02 10:23:47;;;;;;;11.55;5.22;;;19.60;55.20;;;;;;5104124;28;20099;-71
2021/04/02 10:26:13;;;;;;;14.52;5.60;;;19.70;55.10;;;;;;5090606;28;20028;-69
2021/04/02 10:28:39;;;;;;;14.18;5.10;;;19.80;54.90;;;;;;5092647;28;20031;-70
2021/04/02 10:31:05;;;;;;;19.17;4.68;;;19.80;54.50;;;;;;5094123;28;20024;-69
2021/04/02 10:33:31;;;;;;;13.70;4.22;;;19.80;54.20;;;;;;5094121;28;20107;-70
2021/04/02 10:35:57;;;;;;;12.80;3.92;;;19.80;54.50;;;;;;5093472;28;20020;-69
2021/04/02 10:38:23;;;;;;;11.13;4.28;;;19.90;54.10;;;;;;5093700;28;20024;-70
2021/04/02 10:40:49;;;;;;;13.65;3.45;;;20.00;53.80;;;;;;5093916;28;20562;-68
2021/04/02 10:43:15;;;;;;;18.50;4.10;;;20.10;52.70;;;;;;5089409;28;20094;-69
2021/04/02 10:45:41;;;;;;;24.52;4.53;;;20.10;52.30;;;;;;5084794;28;20486;-67
2021/04/02 10:48:07;;;;;;;16.67;3.78;;;20.00;52.90;;;;;;5073236;28;20104;-71
2021/04/02 10:50:34;;;;;;;13.60;4.10;;;20.00;53.40;;;;;;5088515;28;20102;-69
2021/04/02 10:53:00;;;;;;;23.02;3.90;;;19.90;53.00;;;;;;5104184;28;20036;-68
2021/04/02 10:55:25;;;;;;;22.38;4.90;;;20.00;53.30;;;;;;5112753;28;20087;-68
2021/04/02 10:57:52;;;;;;;21.38;3.97;;;20.10;53.30;;;;;;5100421;28;20024;-70
2021/04/02 11:00:19;;;;;;;17.95;3.75;;;20.20;53.50;;;;;;5081787;28;20118;-72
2021/04/02 11:02:44;;;;;;;24.17;3.83;;;20.30;53.60;;;;;;5085538;28;20115;-68
2021/04/02 11:05:11;;;;;;;17.48;3.65;;;20.40;52.70;;;;;;5089458;28;20063;-69
2021/04/02 11:07:37;;;;;;;20.52;3.35;;;20.40;52.90;;;;;;5093196;28;20032;-69
2021/04/02 11:10:11;;;;;;;17.50;3.30;;;20.30;53.20;;;;;;5091427;28;20027;-69
2021/04/02 11:12:37;;;;;;;17.52;3.05;;;20.20;53.50;;;;;;5093172;28;20020;-69
2021/04/02 11:15:05;;;;;;;15.05;3.42;;;20.10;53.50;;;;;;5093108;28;20027;-71
2021/04/02 11:17:31;;;;;;;17.70;3.08;;;20.10;53.30;;;;;;5092595;28;20020;-68
2021/04/02 11:19:57;;;;;;;14.07;2.70;;;20.20;53.20;;;;;;5092808;28;20161;-69
2021/04/02 11:22:23;;;;;;;12.02;2.85;;;20.20;53.20;;;;;;5093053;28;20020;-67
2021/04/02 11:24:49;;;;;;;11.05;2.67;;;20.10;53.50;;;;;;5093103;28;20028;-66
2021/04/02 11:27:15;;;;;;;9.32;2.42;;;20.00;53.30;;;;;;5091745;28;20055;-71
2021/04/02 11:29:40;;;;;;;9.25;2.65;;;20.00;53.40;;;;;;5092673;28;20031;-73
2021/04/02 11:32:12;;;;;;;8.80;2.47;;;19.90;53.40;;;;;;5091541;28;20028;-71
2021/04/02 11:34:39;;;;;;;9.98;2.42;;;20.00;53.00;;;;;;5092737;28;20028;-71
2021/04/02 11:37:05;;;;;;;11.10;2.72;;;20.00;53.00;;;;;;5093085;28;20020;-71
2021/04/02 11:39:31;;;;;;;8.68;2.03;;;20.00;52.80;;;;;;5092456;28;20020;-70
2021/04/02 11:41:57;;;;;;;7.75;1.88;;;20.00;52.80;;;;;;5092771;28;20027;-71
2021/04/02 11:44:24;;;;;;;10.30;2.13;;;20.00;52.70;;;;;;5092687;28;20107;-73
2021/04/02 11:46:50;;;;;;;6.75;2.17;;;20.00;52.80;;;;;;5092712;28;20105;-72
2021/04/02 11:49:16;;;;;;;11.25;2.60;;;20.00;52.70;;;;;;5092241;28;20028;-71
2021/04/02 11:51:43;;;;;;;5.55;1.80;;;19.90;52.80;;;;;;5091126;28;20123;-70
2021/04/02 11:54:08;;;;;;;7.88;2.03;;;19.90;52.70;;;;;;5092428;28;20032;-71
2021/04/02 11:56:34;;;;;;;7.53;1.70;;;19.90;52.90;;;;;;5092526;28;20409;-71
2021/04/02 11:58:59;;;;;;;6.07;1.67;;;19.80;53.00;;;;;;5092209;28;20042;-71
2021/04/02 12:01:25;;;;;;;6.88;2.03;;;19.80;53.20;;;;;;5092365;28;20023;-70
2021/04/02 12:03:51;;;;;;;6.82;1.75;;;19.70;53.20;;;;;;5092322;28;20031;-71
2021/04/02 12:06:16;;;;;;;6.13;1.55;;;19.70;53.00;;;;;;5092286;28;20032;-71
2021/04/02 12:08:42;;;;;;;10.02;2.47;;;19.70;52.90;;;;;;5090704;28;20043;-69
2021/04/02 12:11:08;;;;;;;6.72;1.60;;;19.70;52.80;;;;;;5091958;28;20443;-70
2021/04/02 12:13:33;;;;;;;5.63;1.52;;;19.70;52.90;;;;;;5092087;28;20496;-70
2021/04/02 12:15:59;;;;;;;6.78;1.60;;;19.70;52.80;;;;;;5092112;28;20028;-72
2021/04/02 12:18:24;;;;;;;5.88;1.50;;;19.70;52.60;;;;;;5090496;28;20024;-70
2021/04/02 12:20:51;;;;;;;6.22;1.55;;;19.70;52.60;;;;;;5092119;28;20027;-71
2021/04/02 12:23:18;;;;;;;4.88;1.50;;;19.70;52.60;;;;;;5092076;28;20180;-71
2021/04/02 12:25:44;;;;;;;6.95;1.77;;;19.70;52.40;;;;;;5092008;28;20051;-71
2021/04/02 12:28:10;;;;;;;5.20;1.80;;;19.70;52.50;;;;;;5091478;28;20028;-71
2021/04/02 12:30:35;;;;;;;6.00;1.63;;;19.60;52.60;;;;;;5091795;28;20032;-70
2021/04/02 12:33:01;;;;;;;5.80;1.58;;;19.60;52.40;;;;;;5090473;28;20081;-70
2021/04/02 12:35:26;;;;;;;5.97;1.80;;;19.60;52.40;;;;;;5091878;28;20020;-70
2021/04/02 12:37:53;;;;;;;3.20;1.20;;;19.60;52.40;;;;;;5091841;28;20059;-70
2021/04/02 12:40:20;;;;;;;5.13;1.35;;;19.60;52.20;;;;;;5091512;28;20397;-70
2021/04/02 12:42:46;;;;;;;5.32;1.42;;;19.60;52.30;;;;;;5091815;28;20102;-71
2021/04/02 12:45:13;;;;;;;4.25;1.20;;;19.60;52.10;;;;;;5090424;28;20028;-70
2021/04/02 12:47:39;;;;;;;5.03;1.60;;;19.60;51.90;;;;;;5091650;28;20067;-70
2021/04/02 12:50:17;;;;;;;4.70;1.30;;;19.60;52.30;;;;;;5091415;28;20035;-70
2021/04/02 12:52:43;;;;;;;4.50;1.40;;;19.60;52.00;;;;;;5087865;28;20159;-71
2021/04/02 12:55:15;;;;;;;4.53;1.45;;;19.60;52.10;;;;;;5068836;28;20120;-71